Aérodrome :
LOGIN :

S'inscrire | Disclaimer

   EN    FR    IT 

 










Légende :    VFR   VFR Marginal   IFR   IFR Intensif   IFR Très Intensif
Visi : 
Plafond : 
>= 8 km
>= 3000ft
5 à 8 km
1000 à 3000 ft
1500m à 5 km
500 à 1000 ft
800 à 1500m
200 à 500 ft
< 800m
< 200 ft
Symboles :   Orages  Brouillard  Fortes neiges  Fortes précipitations  Vent > 20 kt
SIGMETs :   Divers  Orages  Givrage  Turbulence  Onde Orograph.  Cendres Volcan.







- Altitude de l'aérodrome : 195 ft
- Voir les cartes d'approche


LFMY - Salon de Provence

DERNIER METAR :
  • 242030Z AUTO 19004KT CAVOK 21/13 Q1016

METARs EXPIRÉS :
  • 242000Z AUTO 22003KT 180V280 CAVOK 22/13 Q1016
  • 241930Z AUTO 18007KT 160V220 CAVOK 23/13 Q1016
  • 241900Z AUTO 20005KT CAVOK 24/13 Q1015
  • 241830Z AUTO 21005KT 170V240 CAVOK 25/12 Q1015
  • 241800Z AUTO 31004KT 250V350 CAVOK 28/09 Q1015

TAF TAF LFMY
Valide du 24 à 15h jusqu'au 25 à 15h UTC


241400Z 2415/2515 22005KT CAVOK
BECMG 2502/2504 33012KT
Pas de NOTAMs connus pour ce terrain.



MET'MAP, la Météo Aéronautique d'un coup d'oeil ! - Copyright ORBIFLY Décembre 2007 - Disclaimer

ORBIFLY MET'MAP TEAM :

Programmation & Développement : Alexandra Zaïnal
Conception & Développement : Baudouin d'Aumeries
Co-Programmation & Développement : Marc-Olivier Méhu
Soutien technique & logistique : Manuel Goepfert

Contact : metmap@orbifly.com




SOURCES & CREDITS :

   NOAA